sensor_id;sensor_type;location;lat;lon;timestamp;P1;durP1;ratioP1;P2;durP2;ratioP2
13321;SDS011;6730;46.248;6.930;2023-05-07T00:02:24;5.00;;;2.58;;
13321;SDS011;6730;46.248;6.930;2023-05-07T00:04:50;4.78;;;2.17;;
13321;SDS011;6730;46.248;6.930;2023-05-07T00:07:17;2.88;;;2.42;;
13321;SDS011;6730;46.248;6.930;2023-05-07T00:09:43;3.72;;;3.08;;
13321;SDS011;6730;46.248;6.930;2023-05-07T00:12:08;3.10;;;2.15;;
13321;SDS011;6730;46.248;6.930;2023-05-07T00:14:34;6.00;;;2.40;;
13321;SDS011;6730;46.248;6.930;2023-05-07T00:17:00;2.38;;;1.90;;
13321;SDS011;6730;46.248;6.930;2023-05-07T00:19:26;2.30;;;2.10;;
13321;SDS011;6730;46.248;6.930;2023-05-07T00:21:51;2.50;;;2.00;;
13321;SDS011;6730;46.248;6.930;2023-05-07T00:24:18;2.80;;;2.17;;
13321;SDS011;6730;46.248;6.930;2023-05-07T00:26:44;3.90;;;2.17;;
13321;SDS011;6730;46.248;6.930;2023-05-07T00:29:10;2.40;;;2.20;;
13321;SDS011;6730;46.248;6.930;2023-05-07T00:31:36;2.38;;;1.75;;
13321;SDS011;6730;46.248;6.930;2023-05-07T00:34:01;2.88;;;2.40;;
13321;SDS011;6730;46.248;6.930;2023-05-07T00:36:27;2.13;;;1.92;;
13321;SDS011;6730;46.248;6.930;2023-05-07T00:38:54;2.30;;;2.10;;
13321;SDS011;6730;46.248;6.930;2023-05-07T00:41:23;2.80;;;2.33;;
13321;SDS011;6730;46.248;6.930;2023-05-07T00:43:49;2.42;;;2.00;;
13321;SDS011;6730;46.248;6.930;2023-05-07T00:46:16;2.30;;;1.95;;
13321;SDS011;6730;46.248;6.930;2023-05-07T00:48:43;3.80;;;2.20;;
13321;SDS011;6730;46.248;6.930;2023-05-07T00:51:09;2.83;;;2.03;;
13321;SDS011;6730;46.248;6.930;2023-05-07T00:53:36;1.90;;;1.80;;
13321;SDS011;6730;46.248;6.930;2023-05-07T00:56:03;2.78;;;1.75;;
13321;SDS011;6730;46.248;6.930;2023-05-07T00:58:29;3.85;;;2.33;;
13321;SDS011;6730;46.248;6.930;2023-05-07T01:00:55;3.95;;;1.95;;
13321;SDS011;6730;46.248;6.930;2023-05-07T01:03:21;4.72;;;2.22;;
13321;SDS011;6730;46.248;6.930;2023-05-07T01:05:46;2.97;;;2.05;;
13321;SDS011;6730;46.248;6.930;2023-05-07T01:08:13;3.72;;;2.20;;
13321;SDS011;6730;46.248;6.930;2023-05-07T01:10:40;3.03;;;2.20;;
13321;SDS011;6730;46.248;6.930;2023-05-07T01:13:08;4.03;;;1.92;;
13321;SDS011;6730;46.248;6.930;2023-05-07T01:15:35;2.88;;;2.20;;
13321;SDS011;6730;46.248;6.930;2023-05-07T01:18:02;1.95;;;1.83;;
13321;SDS011;6730;46.248;6.930;2023-05-07T01:20:28;2.33;;;1.90;;
13321;SDS011;6730;46.248;6.930;2023-05-07T01:22:54;2.83;;;2.17;;
13321;SDS011;6730;46.248;6.930;2023-05-07T01:25:21;4.60;;;2.00;;
13321;SDS011;6730;46.248;6.930;2023-05-07T01:27:48;4.32;;;2.20;;
13321;SDS011;6730;46.248;6.930;2023-05-07T01:30:14;3.58;;;2.13;;
13321;SDS011;6730;46.248;6.930;2023-05-07T01:33:01;1.75;;;1.65;;
13321;SDS011;6730;46.248;6.930;2023-05-07T01:35:32;3.05;;;2.20;;
13321;SDS011;6730;46.248;6.930;2023-05-07T01:38:02;3.95;;;2.10;;
13321;SDS011;6730;46.248;6.930;2023-05-07T01:40:30;4.22;;;1.98;;
13321;SDS011;6730;46.248;6.930;2023-05-07T01:42:56;4.53;;;2.10;;
13321;SDS011;6730;46.248;6.930;2023-05-07T01:45:22;2.42;;;2.22;;
13321;SDS011;6730;46.248;6.930;2023-05-07T01:47:49;2.80;;;2.28;;
13321;SDS011;6730;46.248;6.930;2023-05-07T01:50:15;2.50;;;2.05;;
13321;SDS011;6730;46.248;6.930;2023-05-07T01:52:43;2.78;;;2.17;;
13321;SDS011;6730;46.248;6.930;2023-05-07T01:55:09;3.72;;;2.70;;
13321;SDS011;6730;46.248;6.930;2023-05-07T01:57:35;4.35;;;2.13;;
13321;SDS011;6730;46.248;6.930;2023-05-07T02:00:01;2.42;;;2.25;;
13321;SDS011;6730;46.248;6.930;2023-05-07T02:02:28;4.40;;;2.40;;
13321;SDS011;6730;46.248;6.930;2023-05-07T02:04:54;3.47;;;2.20;;
13321;SDS011;6730;46.248;6.930;2023-05-07T02:07:19;2.58;;;1.92;;
13321;SDS011;6730;46.248;6.930;2023-05-07T02:09:45;2.35;;;2.03;;
13321;SDS011;6730;46.248;6.930;2023-05-07T02:12:10;3.10;;;2.13;;
13321;SDS011;6730;46.248;6.930;2023-05-07T02:14:36;2.33;;;2.13;;
13321;SDS011;6730;46.248;6.930;2023-05-07T02:17:02;3.20;;;2.05;;
13321;SDS011;6730;46.248;6.930;2023-05-07T02:19:27;2.22;;;2.03;;
13321;SDS011;6730;46.248;6.930;2023-05-07T02:21:53;2.17;;;2.00;;
13321;SDS011;6730;46.248;6.930;2023-05-07T02:24:19;4.35;;;2.10;;
13321;SDS011;6730;46.248;6.930;2023-05-07T02:26:45;3.42;;;1.88;;
13321;SDS011;6730;46.248;6.930;2023-05-07T02:29:10;2.70;;;2.20;;
13321;SDS011;6730;46.248;6.930;2023-05-07T02:31:36;2.38;;;2.00;;
13321;SDS011;6730;46.248;6.930;2023-05-07T02:34:01;2.45;;;2.25;;
13321;SDS011;6730;46.248;6.930;2023-05-07T02:36:27;2.35;;;2.15;;
13321;SDS011;6730;46.248;6.930;2023-05-07T02:38:53;3.80;;;2.33;;
13321;SDS011;6730;46.248;6.930;2023-05-07T02:41:19;2.83;;;1.92;;
13321;SDS011;6730;46.248;6.930;2023-05-07T02:43:45;2.83;;;2.53;;
13321;SDS011;6730;46.248;6.930;2023-05-07T02:46:11;2.30;;;2.10;;
13321;SDS011;6730;46.248;6.930;2023-05-07T02:48:37;2.05;;;1.85;;
13321;SDS011;6730;46.248;6.930;2023-05-07T02:51:03;3.45;;;2.15;;
13321;SDS011;6730;46.248;6.930;2023-05-07T02:53:30;2.67;;;2.10;;
13321;SDS011;6730;46.248;6.930;2023-05-07T02:55:56;2.40;;;2.20;;
13321;SDS011;6730;46.248;6.930;2023-05-07T02:58:23;2.35;;;2.15;;
13321;SDS011;6730;46.248;6.930;2023-05-07T03:00:49;2.17;;;1.98;;
13321;SDS011;6730;46.248;6.930;2023-05-07T03:03:15;3.20;;;1.83;;
13321;SDS011;6730;46.248;6.930;2023-05-07T03:05:41;3.72;;;2.75;;
13321;SDS011;6730;46.248;6.930;2023-05-07T03:08:07;5.22;;;2.30;;
13321;SDS011;6730;46.248;6.930;2023-05-07T03:10:32;3.17;;;2.28;;
13321;SDS011;6730;46.248;6.930;2023-05-07T03:12:58;4.50;;;2.47;;
13321;SDS011;6730;46.248;6.930;2023-05-07T03:15:24;2.50;;;2.22;;
13321;SDS011;6730;46.248;6.930;2023-05-07T03:17:50;2.38;;;2.13;;
13321;SDS011;6730;46.248;6.930;2023-05-07T03:20:16;2.20;;;2.00;;
13321;SDS011;6730;46.248;6.930;2023-05-07T03:22:41;4.50;;;2.20;;
13321;SDS011;6730;46.248;6.930;2023-05-07T03:25:08;1.92;;;1.83;;
13321;SDS011;6730;46.248;6.930;2023-05-07T03:27:34;2.35;;;2.15;;
13321;SDS011;6730;46.248;6.930;2023-05-07T03:30:00;2.88;;;2.20;;
13321;SDS011;6730;46.248;6.930;2023-05-07T03:32:25;2.95;;;2.08;;
13321;SDS011;6730;46.248;6.930;2023-05-07T03:34:51;2.97;;;2.20;;
13321;SDS011;6730;46.248;6.930;2023-05-07T03:37:17;2.28;;;2.08;;
13321;SDS011;6730;46.248;6.930;2023-05-07T03:39:43;2.97;;;2.33;;
13321;SDS011;6730;46.248;6.930;2023-05-07T03:42:09;2.95;;;2.10;;
13321;SDS011;6730;46.248;6.930;2023-05-07T03:44:35;2.28;;;2.08;;
13321;SDS011;6730;46.248;6.930;2023-05-07T03:47:01;2.03;;;1.90;;
13321;SDS011;6730;46.248;6.930;2023-05-07T03:49:27;2.33;;;2.10;;
13321;SDS011;6730;46.248;6.930;2023-05-07T03:51:53;2.63;;;2.10;;
13321;SDS011;6730;46.248;6.930;2023-05-07T03:54:19;2.63;;;2.35;;
13321;SDS011;6730;46.248;6.930;2023-05-07T03:56:45;2.88;;;2.08;;
13321;SDS011;6730;46.248;6.930;2023-05-07T03:59:11;2.30;;;2.10;;
13321;SDS011;6730;46.248;6.930;2023-05-07T04:01:37;2.67;;;1.90;;
13321;SDS011;6730;46.248;6.930;2023-05-07T04:04:04;2.65;;;2.00;;
13321;SDS011;6730;46.248;6.930;2023-05-07T04:06:30;3.03;;;2.63;;
13321;SDS011;6730;46.248;6.930;2023-05-07T04:08:56;2.95;;;2.10;;
13321;SDS011;6730;46.248;6.930;2023-05-07T04:11:22;4.38;;;2.33;;
13321;SDS011;6730;46.248;6.930;2023-05-07T04:13:48;2.88;;;2.22;;
13321;SDS011;6730;46.248;6.930;2023-05-07T04:16:13;3.67;;;2.78;;
13321;SDS011;6730;46.248;6.930;2023-05-07T04:18:40;3.95;;;2.30;;
13321;SDS011;6730;46.248;6.930;2023-05-07T04:21:13;2.53;;;2.33;;
13321;SDS011;6730;46.248;6.930;2023-05-07T04:23:40;2.50;;;2.30;;
13321;SDS011;6730;46.248;6.930;2023-05-07T04:26:06;2.20;;;2.05;;
13321;SDS011;6730;46.248;6.930;2023-05-07T04:28:32;2.70;;;2.20;;
13321;SDS011;6730;46.248;6.930;2023-05-07T04:31:00;3.50;;;2.30;;
13321;SDS011;6730;46.248;6.930;2023-05-07T04:33:26;2.83;;;2.22;;
13321;SDS011;6730;46.248;6.930;2023-05-07T04:35:52;3.35;;;2.40;;
13321;SDS011;6730;46.248;6.930;2023-05-07T04:38:17;3.33;;;2.00;;
13321;SDS011;6730;46.248;6.930;2023-05-07T04:40:43;4.32;;;2.45;;
13321;SDS011;6730;46.248;6.930;2023-05-07T04:43:09;3.42;;;2.42;;
13321;SDS011;6730;46.248;6.930;2023-05-07T04:45:35;2.60;;;2.40;;
13321;SDS011;6730;46.248;6.930;2023-05-07T04:48:01;4.82;;;2.53;;
13321;SDS011;6730;46.248;6.930;2023-05-07T04:50:27;2.38;;;2.17;;
13321;SDS011;6730;46.248;6.930;2023-05-07T04:52:53;5.32;;;2.75;;
13321;SDS011;6730;46.248;6.930;2023-05-07T04:55:19;2.80;;;2.60;;
13321;SDS011;6730;46.248;6.930;2023-05-07T04:57:45;2.55;;;2.33;;
13321;SDS011;6730;46.248;6.930;2023-05-07T05:00:10;4.10;;;2.88;;
13321;SDS011;6730;46.248;6.930;2023-05-07T05:02:39;4.55;;;3.10;;
13321;SDS011;6730;46.248;6.930;2023-05-07T05:05:06;4.75;;;2.85;;
13321;SDS011;6730;46.248;6.930;2023-05-07T05:07:32;7.40;;;2.83;;
13321;SDS011;6730;46.248;6.930;2023-05-07T05:09:58;3.00;;;2.53;;
13321;SDS011;6730;46.248;6.930;2023-05-07T05:12:24;3.55;;;2.75;;
13321;SDS011;6730;46.248;6.930;2023-05-07T05:14:49;4.63;;;2.78;;
13321;SDS011;6730;46.248;6.930;2023-05-07T05:17:15;4.90;;;2.67;;
13321;SDS011;6730;46.248;6.930;2023-05-07T05:19:41;2.95;;;2.60;;
13321;SDS011;6730;46.248;6.930;2023-05-07T05:22:06;4.07;;;2.42;;
13321;SDS011;6730;46.248;6.930;2023-05-07T05:24:32;5.78;;;3.30;;
13321;SDS011;6730;46.248;6.930;2023-05-07T05:26:57;3.10;;;2.80;;
13321;SDS011;6730;46.248;6.930;2023-05-07T05:29:26;3.63;;;2.90;;
13321;SDS011;6730;46.248;6.930;2023-05-07T05:31:51;3.20;;;2.80;;
13321;SDS011;6730;46.248;6.930;2023-05-07T05:34:17;3.33;;;2.88;;
13321;SDS011;6730;46.248;6.930;2023-05-07T05:36:44;3.97;;;2.80;;
13321;SDS011;6730;46.248;6.930;2023-05-07T05:39:10;2.88;;;2.58;;
13321;SDS011;6730;46.248;6.930;2023-05-07T05:41:36;3.47;;;2.47;;
13321;SDS011;6730;46.248;6.930;2023-05-07T05:44:01;2.92;;;2.63;;
13321;SDS011;6730;46.248;6.930;2023-05-07T05:46:27;3.88;;;2.67;;
13321;SDS011;6730;46.248;6.930;2023-05-07T05:48:53;3.17;;;2.47;;
13321;SDS011;6730;46.248;6.930;2023-05-07T05:51:18;2.95;;;2.53;;
13321;SDS011;6730;46.248;6.930;2023-05-07T05:53:45;2.72;;;2.53;;
13321;SDS011;6730;46.248;6.930;2023-05-07T05:56:11;2.40;;;2.20;;
13321;SDS011;6730;46.248;6.930;2023-05-07T05:58:37;2.40;;;2.20;;
13321;SDS011;6730;46.248;6.930;2023-05-07T06:01:02;3.03;;;2.58;;
13321;SDS011;6730;46.248;6.930;2023-05-07T06:03:28;2.90;;;2.53;;
13321;SDS011;6730;46.248;6.930;2023-05-07T06:05:54;3.15;;;2.47;;
13321;SDS011;6730;46.248;6.930;2023-05-07T06:08:20;2.50;;;2.30;;
13321;SDS011;6730;46.248;6.930;2023-05-07T06:10:45;2.75;;;2.33;;
13321;SDS011;6730;46.248;6.930;2023-05-07T06:13:11;2.40;;;2.20;;
13321;SDS011;6730;46.248;6.930;2023-05-07T06:15:37;2.55;;;2.30;;
13321;SDS011;6730;46.248;6.930;2023-05-07T06:18:02;2.63;;;1.90;;
13321;SDS011;6730;46.248;6.930;2023-05-07T06:20:28;2.35;;;2.15;;
13321;SDS011;6730;46.248;6.930;2023-05-07T06:22:54;2.05;;;1.95;;
13321;SDS011;6730;46.248;6.930;2023-05-07T06:25:19;3.33;;;1.85;;
13321;SDS011;6730;46.248;6.930;2023-05-07T06:27:45;2.20;;;2.00;;
13321;SDS011;6730;46.248;6.930;2023-05-07T06:30:11;2.28;;;1.98;;
13321;SDS011;6730;46.248;6.930;2023-05-07T06:32:37;2.75;;;2.00;;
13321;SDS011;6730;46.248;6.930;2023-05-07T06:35:03;3.88;;;3.40;;
13321;SDS011;6730;46.248;6.930;2023-05-07T06:37:29;3.47;;;3.10;;
13321;SDS011;6730;46.248;6.930;2023-05-07T06:39:54;4.63;;;3.97;;
13321;SDS011;6730;46.248;6.930;2023-05-07T06:42:20;3.25;;;2.88;;
13321;SDS011;6730;46.248;6.930;2023-05-07T06:44:46;3.30;;;3.00;;
13321;SDS011;6730;46.248;6.930;2023-05-07T06:47:11;6.28;;;3.30;;
13321;SDS011;6730;46.248;6.930;2023-05-07T06:49:37;2.67;;;2.40;;
13321;SDS011;6730;46.248;6.930;2023-05-07T06:52:03;6.72;;;3.10;;
13321;SDS011;6730;46.248;6.930;2023-05-07T06:54:28;3.13;;;2.60;;
13321;SDS011;6730;46.248;6.930;2023-05-07T06:56:54;3.05;;;2.75;;
13321;SDS011;6730;46.248;6.930;2023-05-07T06:59:20;2.75;;;2.53;;
13321;SDS011;6730;46.248;6.930;2023-05-07T07:01:45;4.25;;;2.53;;
13321;SDS011;6730;46.248;6.930;2023-05-07T07:04:11;2.67;;;2.28;;
13321;SDS011;6730;46.248;6.930;2023-05-07T07:06:37;3.40;;;2.58;;
13321;SDS011;6730;46.248;6.930;2023-05-07T07:09:02;2.53;;;2.33;;
13321;SDS011;6730;46.248;6.930;2023-05-07T07:11:28;4.88;;;2.80;;
13321;SDS011;6730;46.248;6.930;2023-05-07T07:13:53;2.60;;;2.40;;
13321;SDS011;6730;46.248;6.930;2023-05-07T07:16:20;3.28;;;2.70;;
13321;SDS011;6730;46.248;6.930;2023-05-07T07:18:46;2.78;;;2.33;;
13321;SDS011;6730;46.248;6.930;2023-05-07T07:21:12;2.53;;;2.20;;
13321;SDS011;6730;46.248;6.930;2023-05-07T07:23:37;2.50;;;2.30;;
13321;SDS011;6730;46.248;6.930;2023-05-07T07:26:03;3.00;;;2.47;;
13321;SDS011;6730;46.248;6.930;2023-05-07T07:28:29;2.40;;;2.13;;
13321;SDS011;6730;46.248;6.930;2023-05-07T07:30:54;2.33;;;2.13;;
13321;SDS011;6730;46.248;6.930;2023-05-07T07:33:20;2.25;;;2.05;;
13321;SDS011;6730;46.248;6.930;2023-05-07T07:35:45;4.20;;;2.47;;
13321;SDS011;6730;46.248;6.930;2023-05-07T07:38:11;4.72;;;2.40;;
13321;SDS011;6730;46.248;6.930;2023-05-07T07:40:37;2.63;;;2.28;;
13321;SDS011;6730;46.248;6.930;2023-05-07T07:43:04;2.33;;;2.13;;
13321;SDS011;6730;46.248;6.930;2023-05-07T07:45:31;2.78;;;2.30;;
13321;SDS011;6730;46.248;6.930;2023-05-07T07:47:56;3.10;;;2.70;;
13321;SDS011;6730;46.248;6.930;2023-05-07T07:50:22;3.03;;;2.72;;
13321;SDS011;6730;46.248;6.930;2023-05-07T07:52:48;5.50;;;2.53;;
13321;SDS011;6730;46.248;6.930;2023-05-07T07:55:13;3.47;;;2.35;;
13321;SDS011;6730;46.248;6.930;2023-05-07T07:57:43;3.20;;;1.98;;
13321;SDS011;6730;46.248;6.930;2023-05-07T08:00:08;2.85;;;2.00;;
13321;SDS011;6730;46.248;6.930;2023-05-07T08:02:34;4.13;;;2.70;;
13321;SDS011;6730;46.248;6.930;2023-05-07T08:05:00;5.10;;;3.40;;
13321;SDS011;6730;46.248;6.930;2023-05-07T08:07:26;3.47;;;3.03;;
13321;SDS011;6730;46.248;6.930;2023-05-07T08:09:51;3.88;;;3.15;;
13321;SDS011;6730;46.248;6.930;2023-05-07T08:12:17;5.68;;;3.90;;
13321;SDS011;6730;46.248;6.930;2023-05-07T08:14:43;5.82;;;3.78;;
13321;SDS011;6730;46.248;6.930;2023-05-07T08:17:09;4.82;;;3.35;;
13321;SDS011;6730;46.248;6.930;2023-05-07T08:19:35;6.05;;;3.97;;
13321;SDS011;6730;46.248;6.930;2023-05-07T08:22:02;3.95;;;2.80;;
13321;SDS011;6730;46.248;6.930;2023-05-07T08:24:28;5.43;;;3.33;;
13321;SDS011;6730;46.248;6.930;2023-05-07T08:26:53;3.05;;;2.63;;
13321;SDS011;6730;46.248;6.930;2023-05-07T08:29:19;3.38;;;3.13;;
13321;SDS011;6730;46.248;6.930;2023-05-07T08:31:45;4.93;;;3.63;;
13321;SDS011;6730;46.248;6.930;2023-05-07T08:34:10;4.22;;;3.83;;
13321;SDS011;6730;46.248;6.930;2023-05-07T08:36:36;4.97;;;3.70;;
13321;SDS011;6730;46.248;6.930;2023-05-07T08:39:02;4.65;;;3.97;;
13321;SDS011;6730;46.248;6.930;2023-05-07T08:41:27;8.38;;;4.00;;
13321;SDS011;6730;46.248;6.930;2023-05-07T08:43:54;4.20;;;3.78;;
13321;SDS011;6730;46.248;6.930;2023-05-07T08:46:25;3.67;;;3.38;;
13321;SDS011;6730;46.248;6.930;2023-05-07T08:48:54;3.70;;;3.38;;
13321;SDS011;6730;46.248;6.930;2023-05-07T08:51:20;4.18;;;3.45;;
13321;SDS011;6730;46.248;6.930;2023-05-07T08:53:47;4.22;;;3.70;;
13321;SDS011;6730;46.248;6.930;2023-05-07T08:56:14;4.55;;;3.55;;
13321;SDS011;6730;46.248;6.930;2023-05-07T08:58:40;3.92;;;3.50;;
13321;SDS011;6730;46.248;6.930;2023-05-07T09:01:08;3.72;;;3.42;;
13321;SDS011;6730;46.248;6.930;2023-05-07T09:03:38;3.53;;;3.22;;
13321;SDS011;6730;46.248;6.930;2023-05-07T09:06:04;3.63;;;3.03;;
13321;SDS011;6730;46.248;6.930;2023-05-07T09:08:30;4.47;;;3.00;;
13321;SDS011;6730;46.248;6.930;2023-05-07T09:10:57;3.72;;;3.42;;
13321;SDS011;6730;46.248;6.930;2023-05-07T09:13:23;3.85;;;3.45;;
13321;SDS011;6730;46.248;6.930;2023-05-07T09:15:49;5.05;;;3.60;;
13321;SDS011;6730;46.248;6.930;2023-05-07T09:18:15;4.18;;;3.47;;
13321;SDS011;6730;46.248;6.930;2023-05-07T09:20:41;3.45;;;3.15;;
13321;SDS011;6730;46.248;6.930;2023-05-07T09:23:07;3.55;;;3.25;;
13321;SDS011;6730;46.248;6.930;2023-05-07T09:25:33;3.63;;;2.75;;
13321;SDS011;6730;46.248;6.930;2023-05-07T09:28:00;5.07;;;2.92;;
13321;SDS011;6730;46.248;6.930;2023-05-07T09:30:30;4.50;;;3.10;;
13321;SDS011;6730;46.248;6.930;2023-05-07T09:33:02;4.15;;;3.13;;
13321;SDS011;6730;46.248;6.930;2023-05-07T09:35:29;4.20;;;3.22;;
13321;SDS011;6730;46.248;6.930;2023-05-07T09:37:59;3.58;;;2.80;;
13321;SDS011;6730;46.248;6.930;2023-05-07T09:40:26;2.90;;;2.70;;
13321;SDS011;6730;46.248;6.930;2023-05-07T09:42:55;3.22;;;2.63;;
13321;SDS011;6730;46.248;6.930;2023-05-07T09:45:21;4.55;;;3.17;;
13321;SDS011;6730;46.248;6.930;2023-05-07T09:47:50;3.38;;;3.08;;
13321;SDS011;6730;46.248;6.930;2023-05-07T09:50:19;5.32;;;3.20;;
13321;SDS011;6730;46.248;6.930;2023-05-07T09:52:50;4.15;;;3.00;;
13321;SDS011;6730;46.248;6.930;2023-05-07T09:55:17;3.42;;;3.08;;
13321;SDS011;6730;46.248;6.930;2023-05-07T09:57:43;2.72;;;2.53;;
13321;SDS011;6730;46.248;6.930;2023-05-07T10:00:10;3.20;;;2.90;;
13321;SDS011;6730;46.248;6.930;2023-05-07T10:02:37;4.45;;;3.35;;
13321;SDS011;6730;46.248;6.930;2023-05-07T10:05:11;5.43;;;3.20;;
13321;SDS011;6730;46.248;6.930;2023-05-07T10:07:39;3.75;;;3.42;;
13321;SDS011;6730;46.248;6.930;2023-05-07T10:10:05;3.08;;;2.80;;
13321;SDS011;6730;46.248;6.930;2023-05-07T10:12:32;5.05;;;3.70;;
13321;SDS011;6730;46.248;6.930;2023-05-07T10:15:04;3.88;;;3.47;;
13321;SDS011;6730;46.248;6.930;2023-05-07T10:17:35;5.93;;;3.83;;
13321;SDS011;6730;46.248;6.930;2023-05-07T10:20:03;5.20;;;4.00;;
13321;SDS011;6730;46.248;6.930;2023-05-07T10:22:31;4.82;;;4.43;;
13321;SDS011;6730;46.248;6.930;2023-05-07T10:25:03;5.18;;;4.20;;
13321;SDS011;6730;46.248;6.930;2023-05-07T10:27:43;4.43;;;4.03;;
13321;SDS011;6730;46.248;6.930;2023-05-07T10:32:55;5.50;;;4.15;;
13321;SDS011;6730;46.248;6.930;2023-05-07T10:35:31;3.70;;;3.40;;
13321;SDS011;6730;46.248;6.930;2023-05-07T10:38:01;3.33;;;2.90;;
13321;SDS011;6730;46.248;6.930;2023-05-07T10:40:27;5.32;;;3.15;;
13321;SDS011;6730;46.248;6.930;2023-05-07T10:42:54;3.83;;;2.90;;
13321;SDS011;6730;46.248;6.930;2023-05-07T10:45:21;4.30;;;3.10;;
13321;SDS011;6730;46.248;6.930;2023-05-07T10:50:35;6.20;;;3.08;;
13321;SDS011;6730;46.248;6.930;2023-05-07T10:55:46;4.78;;;3.00;;
13321;SDS011;6730;46.248;6.930;2023-05-07T10:58:23;3.90;;;3.10;;
13321;SDS011;6730;46.248;6.930;2023-05-07T11:00:56;3.20;;;2.90;;
13321;SDS011;6730;46.248;6.930;2023-05-07T11:03:23;4.57;;;3.00;;
13321;SDS011;6730;46.248;6.930;2023-05-07T11:06:08;3.55;;;3.22;;
13321;SDS011;6730;46.248;6.930;2023-05-07T11:08:53;3.25;;;2.95;;
13321;SDS011;6730;46.248;6.930;2023-05-07T11:11:19;3.88;;;3.25;;
13321;SDS011;6730;46.248;6.930;2023-05-07T11:13:46;3.75;;;3.10;;
13321;SDS011;6730;46.248;6.930;2023-05-07T11:16:30;4.63;;;3.53;;
13321;SDS011;6730;46.248;6.930;2023-05-07T11:18:58;5.43;;;3.42;;
13321;SDS011;6730;46.248;6.930;2023-05-07T11:21:39;3.78;;;3.08;;
13321;SDS011;6730;46.248;6.930;2023-05-07T11:24:07;3.20;;;2.90;;
13321;SDS011;6730;46.248;6.930;2023-05-07T11:26:43;3.35;;;2.70;;
13321;SDS011;6730;46.248;6.930;2023-05-07T11:29:13;5.55;;;3.28;;
13321;SDS011;6730;46.248;6.930;2023-05-07T11:31:40;2.88;;;2.50;;
13321;SDS011;6730;46.248;6.930;2023-05-07T11:34:06;4.63;;;2.85;;
13321;SDS011;6730;46.248;6.930;2023-05-07T11:36:32;2.72;;;2.53;;
13321;SDS011;6730;46.248;6.930;2023-05-07T11:38:58;3.08;;;2.70;;
13321;SDS011;6730;46.248;6.930;2023-05-07T11:41:34;3.85;;;3.22;;
13321;SDS011;6730;46.248;6.930;2023-05-07T11:44:01;4.22;;;3.13;;
13321;SDS011;6730;46.248;6.930;2023-05-07T11:46:28;4.10;;;2.92;;
13321;SDS011;6730;46.248;6.930;2023-05-07T11:48:54;3.33;;;3.03;;
13321;SDS011;6730;46.248;6.930;2023-05-07T11:51:21;2.55;;;2.35;;
13321;SDS011;6730;46.248;6.930;2023-05-07T11:53:48;3.80;;;2.70;;
13321;SDS011;6730;46.248;6.930;2023-05-07T11:56:15;3.00;;;2.80;;
13321;SDS011;6730;46.248;6.930;2023-05-07T11:58:43;3.85;;;3.40;;
13321;SDS011;6730;46.248;6.930;2023-05-07T12:01:10;3.47;;;3.17;;
13321;SDS011;6730;46.248;6.930;2023-05-07T12:03:39;3.95;;;3.10;;
13321;SDS011;6730;46.248;6.930;2023-05-07T12:06:07;4.40;;;3.50;;
13321;SDS011;6730;46.248;6.930;2023-05-07T12:08:36;4.00;;;3.60;;
13321;SDS011;6730;46.248;6.930;2023-05-07T12:11:03;3.35;;;3.05;;
13321;SDS011;6730;46.248;6.930;2023-05-07T12:13:33;4.00;;;3.45;;
13321;SDS011;6730;46.248;6.930;2023-05-07T12:15:58;8.13;;;3.63;;
13321;SDS011;6730;46.248;6.930;2023-05-07T12:18:24;3.53;;;3.22;;
13321;SDS011;6730;46.248;6.930;2023-05-07T12:20:50;3.88;;;3.58;;
13321;SDS011;6730;46.248;6.930;2023-05-07T12:23:16;3.60;;;3.30;;
13321;SDS011;6730;46.248;6.930;2023-05-07T12:25:42;4.20;;;3.80;;
13321;SDS011;6730;46.248;6.930;2023-05-07T12:28:15;3.95;;;3.58;;
13321;SDS011;6730;46.248;6.930;2023-05-07T12:30:42;4.28;;;3.88;;
13321;SDS011;6730;46.248;6.930;2023-05-07T12:33:09;4.20;;;3.42;;
13321;SDS011;6730;46.248;6.930;2023-05-07T12:35:39;4.80;;;3.75;;
13321;SDS011;6730;46.248;6.930;2023-05-07T12:38:09;4.00;;;3.60;;
13321;SDS011;6730;46.248;6.930;2023-05-07T12:40:38;4.05;;;3.53;;
13321;SDS011;6730;46.248;6.930;2023-05-07T12:43:08;3.75;;;3.42;;
13321;SDS011;6730;46.248;6.930;2023-05-07T12:45:49;4.32;;;3.55;;
13321;SDS011;6730;46.248;6.930;2023-05-07T12:48:16;4.72;;;3.25;;
13321;SDS011;6730;46.248;6.930;2023-05-07T12:50:42;5.20;;;3.67;;
13321;SDS011;6730;46.248;6.930;2023-05-07T12:53:11;3.25;;;2.95;;
13321;SDS011;6730;46.248;6.930;2023-05-07T12:55:44;8.60;;;3.72;;
13321;SDS011;6730;46.248;6.930;2023-05-07T12:58:26;4.07;;;2.83;;
13321;SDS011;6730;46.248;6.930;2023-05-07T13:00:53;4.88;;;2.60;;
13321;SDS011;6730;46.248;6.930;2023-05-07T13:05:57;3.38;;;3.05;;
13321;SDS011;6730;46.248;6.930;2023-05-07T13:08:34;3.63;;;3.03;;
13321;SDS011;6730;46.248;6.930;2023-05-07T13:11:03;3.13;;;2.38;;
13321;SDS011;6730;46.248;6.930;2023-05-07T13:13:33;5.07;;;2.80;;
13321;SDS011;6730;46.248;6.930;2023-05-07T13:16:00;4.05;;;2.90;;
13321;SDS011;6730;46.248;6.930;2023-05-07T13:18:29;4.03;;;3.05;;
13321;SDS011;6730;46.248;6.930;2023-05-07T13:20:55;5.63;;;2.70;;
13321;SDS011;6730;46.248;6.930;2023-05-07T13:23:21;7.85;;;3.17;;
13321;SDS011;6730;46.248;6.930;2023-05-07T13:25:47;2.97;;;2.60;;
13321;SDS011;6730;46.248;6.930;2023-05-07T13:28:14;3.08;;;2.40;;
13321;SDS011;6730;46.248;6.930;2023-05-07T13:30:40;3.47;;;2.50;;
13321;SDS011;6730;46.248;6.930;2023-05-07T13:33:05;3.55;;;2.83;;
13321;SDS011;6730;46.248;6.930;2023-05-07T13:35:32;4.43;;;2.70;;
13321;SDS011;6730;46.248;6.930;2023-05-07T13:37:57;5.20;;;2.50;;
13321;SDS011;6730;46.248;6.930;2023-05-07T13:40:23;3.40;;;2.50;;
13321;SDS011;6730;46.248;6.930;2023-05-07T13:42:49;5.32;;;2.72;;
13321;SDS011;6730;46.248;6.930;2023-05-07T13:45:16;3.00;;;2.35;;
13321;SDS011;6730;46.248;6.930;2023-05-07T13:47:45;3.58;;;3.25;;
13321;SDS011;6730;46.248;6.930;2023-05-07T13:50:11;4.95;;;3.00;;
13321;SDS011;6730;46.248;6.930;2023-05-07T13:52:39;4.93;;;3.10;;
13321;SDS011;6730;46.248;6.930;2023-05-07T13:55:06;6.00;;;3.55;;
13321;SDS011;6730;46.248;6.930;2023-05-07T13:57:32;3.72;;;3.22;;
13321;SDS011;6730;46.248;6.930;2023-05-07T13:59:57;5.20;;;3.60;;
13321;SDS011;6730;46.248;6.930;2023-05-07T14:02:23;5.97;;;3.50;;
13321;SDS011;6730;46.248;6.930;2023-05-07T14:04:49;3.20;;;2.90;;
13321;SDS011;6730;46.248;6.930;2023-05-07T14:07:17;4.10;;;2.92;;
13321;SDS011;6730;46.248;6.930;2023-05-07T14:09:43;5.13;;;2.95;;
13321;SDS011;6730;46.248;6.930;2023-05-07T14:12:10;4.28;;;2.40;;
13321;SDS011;6730;46.248;6.930;2023-05-07T14:14:35;2.50;;;2.30;;
13321;SDS011;6730;46.248;6.930;2023-05-07T14:17:01;4.97;;;2.38;;
13321;SDS011;6730;46.248;6.930;2023-05-07T14:19:27;4.80;;;2.17;;
13321;SDS011;6730;46.248;6.930;2023-05-07T14:21:52;5.32;;;2.80;;
13321;SDS011;6730;46.248;6.930;2023-05-07T14:24:18;4.30;;;2.97;;
13321;SDS011;6730;46.248;6.930;2023-05-07T14:26:43;2.45;;;2.22;;
13321;SDS011;6730;46.248;6.930;2023-05-07T14:29:10;3.00;;;2.63;;
13321;SDS011;6730;46.248;6.930;2023-05-07T14:31:35;2.92;;;2.63;;
13321;SDS011;6730;46.248;6.930;2023-05-07T14:34:01;6.82;;;2.90;;
13321;SDS011;6730;46.248;6.930;2023-05-07T14:36:27;5.60;;;3.38;;
13321;SDS011;6730;46.248;6.930;2023-05-07T14:38:55;4.03;;;3.30;;
13321;SDS011;6730;46.248;6.930;2023-05-07T14:41:22;3.67;;;2.78;;
13321;SDS011;6730;46.248;6.930;2023-05-07T14:43:47;3.47;;;3.17;;
13321;SDS011;6730;46.248;6.930;2023-05-07T14:46:17;2.95;;;2.65;;
13321;SDS011;6730;46.248;6.930;2023-05-07T14:48:43;13.65;;;3.53;;
13321;SDS011;6730;46.248;6.930;2023-05-07T14:51:10;12.75;;;3.92;;
13321;SDS011;6730;46.248;6.930;2023-05-07T14:53:36;4.25;;;2.90;;
13321;SDS011;6730;46.248;6.930;2023-05-07T14:56:01;4.43;;;2.92;;
13321;SDS011;6730;46.248;6.930;2023-05-07T14:58:28;3.15;;;2.85;;
13321;SDS011;6730;46.248;6.930;2023-05-07T15:00:53;3.08;;;2.83;;
13321;SDS011;6730;46.248;6.930;2023-05-07T15:03:19;4.00;;;3.22;;
13321;SDS011;6730;46.248;6.930;2023-05-07T15:05:46;4.93;;;3.60;;
13321;SDS011;6730;46.248;6.930;2023-05-07T15:08:12;8.20;;;3.75;;
13321;SDS011;6730;46.248;6.930;2023-05-07T15:10:37;3.88;;;3.47;;